Time;durP1;ratioP1;P1;durP2;ratioP2;P2;SDS_P1;SDS_P2;PMS_P1;PMS_P2;Temp;Humidity;BMP_temperature;BMP_pressure;BME280_temperature;BME280_humidity;BME280_pressure;Samples;Min_cycle;Max_cycle;Signal;HPM_P1;HPM_P2
2021/04/01 00:00:12;;;;;;;;;;;18.10;40.80;;;;;;462934;257;2196;-44
2021/04/01 00:02:13;;;;;;;;;;;18.00;40.80;;;;;;463153;257;1048;-45
2021/04/01 00:04:14;;;;;;;;;;;18.10;40.70;;;;;;462928;257;1089;-45
2021/04/01 00:06:16;;;;;;;;;;;18.10;40.70;;;;;;462988;257;1193;-45
2021/04/01 00:08:17;;;;;;;;;;;18.10;40.70;;;;;;462914;257;1215;-44
2021/04/01 00:10:18;;;;;;;;;;;18.10;40.70;;;;;;463130;257;1022;-45
2021/04/01 00:12:20;;;;;;;;;;;18.10;40.70;;;;;;463161;257;1075;-44
2021/04/01 00:14:23;;;;;;;;;;;18.10;40.80;;;;;;462912;257;1103;-44
2021/04/01 00:16:22;;;;;;;;;;;18.00;40.80;;;;;;462984;257;2401;-45
2021/04/01 00:18:23;;;;;;;;;;;18.00;40.80;;;;;;462917;257;1126;-44
2021/04/01 00:20:25;;;;;;;;;;;18.10;40.80;;;;;;463086;257;2220;-44
2021/04/01 00:22:26;;;;;;;;;;;18.10;40.80;;;;;;463131;257;1177;-44
2021/04/01 00:24:27;;;;;;;;;;;18.20;40.60;;;;;;462890;257;1102;-44
2021/04/01 00:26:28;;;;;;;;;;;18.40;40.10;;;;;;462932;257;1050;-44
2021/04/01 00:28:30;;;;;;;;;;;18.60;39.80;;;;;;462909;257;1094;-44
2021/04/01 00:30:31;;;;;;;;;;;18.60;39.60;;;;;;462928;257;1155;-44
2021/04/01 00:32:33;;;;;;;;;;;18.60;39.60;;;;;;463051;257;1071;-45
2021/04/01 00:34:34;;;;;;;;;;;18.60;39.50;;;;;;462922;257;1090;-45
2021/04/01 00:36:35;;;;;;;;;;;18.60;39.60;;;;;;463125;257;1072;-44
2021/04/01 00:38:37;;;;;;;;;;;18.60;39.70;;;;;;462997;257;1172;-44
2021/04/01 00:40:38;;;;;;;;;;;18.60;39.70;;;;;;463219;257;2210;-44
2021/04/01 00:42:39;;;;;;;;;;;18.50;39.80;;;;;;462969;257;1197;-44
2021/04/01 00:44:40;;;;;;;;;;;18.50;39.80;;;;;;462847;257;2322;-44
2021/04/01 00:46:42;;;;;;;;;;;18.50;40.00;;;;;;462820;257;1594;-44
2021/04/01 00:48:43;;;;;;;;;;;18.50;40.00;;;;;;462862;257;1076;-44
2021/04/01 00:50:44;;;;;;;;;;;18.60;39.80;;;;;;462927;257;1208;-44
2021/04/01 00:52:46;;;;;;;;;;;18.70;39.70;;;;;;463087;257;1164;-44
2021/04/01 00:54:47;;;;;;;;;;;18.70;39.60;;;;;;463201;257;1092;-44
2021/04/01 00:56:48;;;;;;;;;;;18.70;39.60;;;;;;463079;257;1233;-44
2021/04/01 00:58:49;;;;;;;;;;;18.60;39.60;;;;;;463002;257;1080;-45
2021/04/01 01:00:59;;;;;;;;;;;18.70;39.60;;;;;;463111;257;2207;-45
2021/04/01 01:02:53;;;;;;;;;;;18.60;39.60;;;;;;462540;257;1926;-44
2021/04/01 01:04:55;;;;;;;;;;;18.70;39.60;;;;;;463125;257;1079;-45
2021/04/01 01:06:56;;;;;;;;;;;18.70;39.70;;;;;;462905;257;1084;-45
2021/04/01 01:08:57;;;;;;;;;;;18.70;39.60;;;;;;462923;257;1146;-45
2021/04/01 01:10:59;;;;;;;;;;;18.70;39.50;;;;;;463126;257;1075;-44
2021/04/01 01:13:00;;;;;;;;;;;18.60;39.60;;;;;;463292;257;1063;-44
2021/04/01 01:15:01;;;;;;;;;;;18.70;39.60;;;;;;462887;257;1086;-44
2021/04/01 01:17:03;;;;;;;;;;;18.70;39.70;;;;;;463046;257;1084;-45
2021/04/01 01:19:04;;;;;;;;;;;18.70;39.60;;;;;;463132;257;1049;-44
2021/04/01 01:21:07;;;;;;;;;;;18.70;39.60;;;;;;462986;257;2155;-45
2021/04/01 01:23:06;;;;;;;;;;;18.70;39.70;;;;;;462843;257;2424;-45
2021/04/01 01:25:08;;;;;;;;;;;18.70;39.60;;;;;;463024;257;1093;-45
2021/04/01 01:27:09;;;;;;;;;;;18.70;39.70;;;;;;462971;257;1223;-45
2021/04/01 01:29:10;;;;;;;;;;;18.60;39.70;;;;;;462955;257;1061;-44
2021/04/01 01:31:12;;;;;;;;;;;18.70;39.70;;;;;;462870;257;1142;-45
2021/04/01 01:33:18;;;;;;;;;;;18.60;39.70;;;;;;463146;257;1187;-44
2021/04/01 01:35:16;;;;;;;;;;;18.60;39.80;;;;;;463094;257;1245;-44
2021/04/01 01:37:17;;;;;;;;;;;18.70;39.70;;;;;;462888;257;1185;-45
2021/04/01 01:39:18;;;;;;;;;;;18.70;39.60;;;;;;462890;257;1248;-44
2021/04/01 01:41:20;;;;;;;;;;;18.70;39.60;;;;;;462950;257;2190;-44
2021/04/01 01:43:21;;;;;;;;;;;18.70;39.70;;;;;;463142;257;1051;-44
2021/04/01 01:45:22;;;;;;;;;;;18.70;39.60;;;;;;462899;257;1080;-44
2021/04/01 01:47:24;;;;;;;;;;;18.70;39.60;;;;;;462932;257;1183;-44
2021/04/01 01:49:25;;;;;;;;;;;18.70;39.60;;;;;;463110;257;1058;-44
2021/04/01 01:51:26;;;;;;;;;;;18.60;39.70;;;;;;463069;257;1156;-44
2021/04/01 01:53:27;;;;;;;;;;;18.70;39.60;;;;;;462979;257;1264;-44
2021/04/01 01:55:29;;;;;;;;;;;18.70;39.70;;;;;;463220;257;1271;-44
2021/04/01 01:57:30;;;;;;;;;;;18.70;39.70;;;;;;462861;257;1073;-44
2021/04/01 01:59:31;;;;;;;;;;;18.60;39.70;;;;;;463019;257;1043;-44
2021/04/01 02:01:34;;;;;;;;;;;18.60;39.80;;;;;;462882;257;2199;-45
2021/04/01 02:03:34;;;;;;;;;;;18.70;39.70;;;;;;462915;257;1693;-44
2021/04/01 02:05:35;;;;;;;;;;;18.60;39.70;;;;;;462930;257;1225;-44
2021/04/01 02:07:37;;;;;;;;;;;18.60;39.80;;;;;;462823;257;1062;-45
2021/04/01 02:09:38;;;;;;;;;;;18.60;39.80;;;;;;462959;257;1156;-45
2021/04/01 02:11:39;;;;;;;;;;;18.70;39.80;;;;;;463048;257;1071;-45
2021/04/01 02:13:41;;;;;;;;;;;18.60;39.80;;;;;;463056;257;1053;-45
2021/04/01 02:15:42;;;;;;;;;;;18.60;39.80;;;;;;462814;257;1187;-45
2021/04/01 02:17:43;;;;;;;;;;;18.60;39.80;;;;;;462908;257;1263;-45
2021/04/01 02:19:44;;;;;;;;;;;18.60;39.80;;;;;;462922;257;2202;-45
2021/04/01 02:21:46;;;;;;;;;;;18.60;39.80;;;;;;462864;257;1142;-45
2021/04/01 02:23:47;;;;;;;;;;;18.60;39.80;;;;;;463017;257;1285;-45
2021/04/01 02:25:48;;;;;;;;;;;18.60;39.90;;;;;;463119;254;1387;-45
2021/04/01 02:27:50;;;;;;;;;;;18.60;39.80;;;;;;462814;257;1107;-45
2021/04/01 02:29:51;;;;;;;;;;;18.60;39.90;;;;;;462989;257;1073;-45
2021/04/01 02:31:52;;;;;;;;;;;18.60;40.00;;;;;;463027;257;1345;-45
2021/04/01 02:33:53;;;;;;;;;;;18.60;39.80;;;;;;463066;257;1104;-45
2021/04/01 02:35:55;;;;;;;;;;;18.60;39.80;;;;;;463130;257;1155;-45
2021/04/01 02:37:56;;;;;;;;;;;18.60;39.90;;;;;;463043;257;1001;-45
2021/04/01 02:39:57;;;;;;;;;;;18.60;39.90;;;;;;462940;257;2155;-45
2021/04/01 02:41:58;;;;;;;;;;;18.60;39.90;;;;;;462895;257;1186;-45
2021/04/01 02:44:00;;;;;;;;;;;18.60;39.90;;;;;;463064;257;1066;-45
2021/04/01 02:46:01;;;;;;;;;;;18.60;39.90;;;;;;462933;257;1070;-45
2021/04/01 02:48:02;;;;;;;;;;;18.60;39.80;;;;;;463086;257;1074;-45
2021/04/01 02:50:04;;;;;;;;;;;18.60;39.90;;;;;;462916;257;1085;-45
2021/04/01 02:52:05;;;;;;;;;;;18.60;39.90;;;;;;462871;257;1067;-45
2021/04/01 02:54:06;;;;;;;;;;;18.60;39.90;;;;;;462893;257;1156;-45
2021/04/01 02:56:07;;;;;;;;;;;18.60;40.00;;;;;;463159;257;1085;-45
2021/04/01 02:58:09;;;;;;;;;;;18.60;40.00;;;;;;462887;257;1115;-45
2021/04/01 03:00:11;;;;;;;;;;;18.60;39.90;;;;;;462881;257;2198;-44
2021/04/01 03:02:12;;;;;;;;;;;18.60;40.00;;;;;;462900;257;2298;-45
2021/04/01 03:04:13;;;;;;;;;;;18.60;40.00;;;;;;463002;257;1104;-45
2021/04/01 03:06:14;;;;;;;;;;;18.60;40.00;;;;;;463076;257;1123;-45
2021/04/01 03:08:15;;;;;;;;;;;18.60;39.90;;;;;;462853;257;1113;-45
2021/04/01 03:10:16;;;;;;;;;;;18.60;40.00;;;;;;462868;257;1170;-45
2021/04/01 03:12:18;;;;;;;;;;;18.60;40.00;;;;;;462915;257;1098;-45
2021/04/01 03:14:19;;;;;;;;;;;18.60;40.00;;;;;;462848;257;1321;-45
2021/04/01 03:16:20;;;;;;;;;;;18.60;40.00;;;;;;463083;257;1088;-45
2021/04/01 03:18:22;;;;;;;;;;;18.50;40.00;;;;;;462893;257;1124;-45
2021/04/01 03:20:23;;;;;;;;;;;18.60;40.00;;;;;;462812;257;2156;-45
2021/04/01 03:22:24;;;;;;;;;;;18.50;40.00;;;;;;462979;257;1095;-45
2021/04/01 03:24:25;;;;;;;;;;;18.50;40.00;;;;;;462915;257;1155;-45
2021/04/01 03:26:27;;;;;;;;;;;18.50;40.10;;;;;;462861;257;1076;-45
2021/04/01 03:28:29;;;;;;;;;;;18.50;40.10;;;;;;462897;257;1196;-45
2021/04/01 03:30:30;;;;;;;;;;;18.50;40.10;;;;;;462846;257;1110;-45
2021/04/01 03:32:31;;;;;;;;;;;18.50;40.20;;;;;;462834;257;1176;-45
2021/04/01 03:34:32;;;;;;;;;;;18.50;40.10;;;;;;463246;257;1089;-45
2021/04/01 03:36:33;;;;;;;;;;;18.50;40.20;;;;;;463019;257;1055;-45
2021/04/01 03:38:35;;;;;;;;;;;18.50;40.20;;;;;;462971;257;1095;-45
2021/04/01 03:40:36;;;;;;;;;;;18.50;40.20;;;;;;462982;257;2175;-45
2021/04/01 03:42:38;;;;;;;;;;;18.50;40.20;;;;;;462829;257;1182;-45
2021/04/01 03:44:39;;;;;;;;;;;18.50;40.20;;;;;;462872;257;1928;-45
2021/04/01 03:46:40;;;;;;;;;;;18.40;40.20;;;;;;462813;257;1426;-45
2021/04/01 03:48:41;;;;;;;;;;;18.50;40.10;;;;;;463103;257;1056;-45
2021/04/01 03:50:43;;;;;;;;;;;18.50;40.00;;;;;;463026;257;983;-45
2021/04/01 03:52:44;;;;;;;;;;;18.50;40.00;;;;;;462972;257;1079;-45
2021/04/01 03:54:49;;;;;;;;;;;18.50;40.00;;;;;;462845;257;1254;-45
2021/04/01 03:56:48;;;;;;;;;;;18.50;40.10;;;;;;462623;257;1349;-45
2021/04/01 03:58:57;;;;;;;;;;;18.50;40.10;;;;;;462870;257;1119;-45
2021/04/01 04:01:09;;;;;;;;;;;18.50;40.10;;;;;;462791;258;2163;-45
2021/04/01 04:03:10;;;;;;;;;;;18.50;40.20;;;;;;462255;258;1366;-45
2021/04/01 04:05:17;;;;;;;;;;;18.50;40.20;;;;;;462626;258;1873;-45
2021/04/01 04:10:10;;;;;;;;;;;18.40;40.20;;;;;;462966;257;1237;-45
2021/04/01 04:12:14;;;;;;;;;;;18.50;40.30;;;;;;462794;257;1578;-45
2021/04/01 04:14:15;;;;;;;;;;;18.50;40.20;;;;;;462676;257;1443;-44
2021/04/01 04:16:14;;;;;;;;;;;18.50;40.20;;;;;;462674;257;1286;-45
2021/04/01 04:18:15;;;;;;;;;;;18.40;40.20;;;;;;462860;257;1108;-45
2021/04/01 04:20:16;;;;;;;;;;;18.50;40.30;;;;;;462892;257;1141;-45
2021/04/01 04:22:17;;;;;;;;;;;18.50;40.20;;;;;;462740;257;2196;-45
2021/04/01 04:24:18;;;;;;;;;;;18.50;40.10;;;;;;462872;257;1040;-45
2021/04/01 04:26:21;;;;;;;;;;;18.50;40.20;;;;;;462783;257;1285;-45
2021/04/01 04:28:32;;;;;;;;;;;18.50;40.20;;;;;;462863;257;2125;-45
2021/04/01 04:30:32;;;;;;;;;;;18.50;40.20;;;;;;462877;257;1866;-45
2021/04/01 04:32:34;;;;;;;;;;;18.50;40.30;;;;;;462864;257;1122;-45
2021/04/01 04:34:35;;;;;;;;;;;18.40;40.30;;;;;;462844;257;1084;-45
2021/04/01 04:36:36;;;;;;;;;;;18.40;40.20;;;;;;462856;257;1121;-45
2021/04/01 04:38:37;;;;;;;;;;;18.50;40.20;;;;;;462822;257;1082;-45
2021/04/01 04:40:39;;;;;;;;;;;18.50;40.20;;;;;;462724;257;2175;-44
2021/04/01 04:42:40;;;;;;;;;;;18.40;40.20;;;;;;462884;257;1143;-45
2021/04/01 04:44:41;;;;;;;;;;;18.40;40.20;;;;;;462861;257;1101;-45
2021/04/01 04:46:42;;;;;;;;;;;18.40;40.30;;;;;;462835;257;1091;-45
2021/04/01 04:48:44;;;;;;;;;;;18.50;40.30;;;;;;462782;257;1110;-45
2021/04/01 04:50:45;;;;;;;;;;;18.50;40.30;;;;;;462609;257;1067;-45
2021/04/01 04:52:46;;;;;;;;;;;18.40;40.30;;;;;;462746;257;1078;-45
2021/04/01 04:54:48;;;;;;;;;;;18.40;40.40;;;;;;462698;257;1338;-45
2021/04/01 04:56:51;;;;;;;;;;;18.40;40.30;;;;;;462734;257;1091;-45
2021/04/01 04:58:54;;;;;;;;;;;18.40;40.30;;;;;;462841;257;2066;-45
2021/04/01 05:01:02;;;;;;;;;;;18.40;40.30;;;;;;462508;258;2263;-45
2021/04/01 05:05:17;;;;;;;;;;;18.40;40.40;;;;;;462836;257;1125;-45
2021/04/01 05:07:18;;;;;;;;;;;18.40;40.20;;;;;;462703;257;1163;-45
2021/04/01 05:09:19;;;;;;;;;;;18.40;40.20;;;;;;462702;257;1096;-45
2021/04/01 05:11:20;;;;;;;;;;;18.40;40.30;;;;;;462779;257;1248;-45
2021/04/01 05:13:22;;;;;;;;;;;18.40;40.30;;;;;;462791;257;1080;-45
2021/04/01 05:15:23;;;;;;;;;;;18.40;40.30;;;;;;462761;257;1231;-45
2021/04/01 05:17:24;;;;;;;;;;;18.40;40.40;;;;;;462673;257;1261;-45
2021/04/01 05:19:27;;;;;;;;;;;18.40;40.40;;;;;;462663;257;1078;-44
2021/04/01 05:21:32;;;;;;;;;;;18.40;40.30;;;;;;462538;257;2203;-45
2021/04/01 05:23:35;;;;;;;;;;;18.40;40.30;;;;;;462687;257;1350;-45
2021/04/01 05:25:34;;;;;;;;;;;18.40;40.40;;;;;;462467;258;1600;-45
2021/04/01 05:27:39;;;;;;;;;;;18.30;40.40;;;;;;462723;257;1103;-45
2021/04/01 05:29:39;;;;;;;;;;;18.40;40.40;;;;;;462376;258;2354;-45
2021/04/01 05:31:39;;;;;;;;;;;18.30;40.40;;;;;;462659;257;2052;-45
2021/04/01 05:33:44;;;;;;;;;;;18.30;40.40;;;;;;462481;257;1958;-45
2021/04/01 05:35:41;;;;;;;;;;;18.30;40.40;;;;;;462208;258;1868;-45
2021/04/01 05:37:42;;;;;;;;;;;18.30;40.30;;;;;;462569;257;1426;-45
2021/04/01 05:39:45;;;;;;;;;;;18.40;40.30;;;;;;462635;257;1125;-44
2021/04/01 05:41:44;;;;;;;;;;;18.40;40.30;;;;;;462513;257;2184;-45
2021/04/01 05:43:49;;;;;;;;;;;18.40;40.30;;;;;;462626;257;1101;-45
2021/04/01 05:45:50;;;;;;;;;;;18.40;40.30;;;;;;462407;257;1323;-45
2021/04/01 05:47:52;;;;;;;;;;;18.40;40.30;;;;;;462372;258;1751;-45
2021/04/01 05:49:59;;;;;;;;;;;18.40;40.20;;;;;;462360;258;1508;-45
2021/04/01 05:57:13;;;;;;;;;;;18.50;40.10;;;;;;462624;257;1141;-45
2021/04/01 05:59:26;;;;;;;;;;;18.50;40.00;;;;;;461689;258;2505;-45
2021/04/01 06:01:30;;;;;;;;;;;18.50;40.00;;;;;;462201;257;2215;-45
2021/04/01 06:03:33;;;;;;;;;;;18.60;39.90;;;;;;462226;258;1566;-45
2021/04/01 06:05:34;;;;;;;;;;;18.60;39.70;;;;;;462382;258;1359;-45
2021/04/01 06:07:34;;;;;;;;;;;18.70;39.60;;;;;;462477;257;1381;-45
2021/04/01 06:09:35;;;;;;;;;;;18.70;39.60;;;;;;462439;257;1101;-45
2021/04/01 06:11:36;;;;;;;;;;;18.70;39.50;;;;;;462205;257;1209;-45
2021/04/01 06:13:45;;;;;;;;;;;18.80;39.40;;;;;;462537;257;1255;-45
2021/04/01 06:15:41;;;;;;;;;;;18.80;39.50;;;;;;462168;258;1323;-45
2021/04/01 06:17:42;;;;;;;;;;;18.70;39.50;;;;;;462513;257;1143;-45
2021/04/01 06:19:43;;;;;;;;;;;18.70;39.60;;;;;;462527;257;1134;-45
2021/04/01 06:21:44;;;;;;;;;;;18.60;39.70;;;;;;462461;257;2195;-45
2021/04/01 06:23:46;;;;;;;;;;;18.60;39.90;;;;;;462587;257;1076;-45
2021/04/01 06:25:48;;;;;;;;;;;18.50;40.10;;;;;;462622;257;1342;-45
2021/04/01 06:27:51;;;;;;;;;;;18.40;40.30;;;;;;462440;257;2069;-45
2021/04/01 06:30:12;;;;;;;;;;;18.40;40.40;;;;;;462215;258;1253;-45
2021/04/01 06:32:11;;;;;;;;;;;18.30;40.50;;;;;;462223;257;1470;-45
2021/04/01 06:34:13;;;;;;;;;;;18.30;40.50;;;;;;462320;257;1095;-45
2021/04/01 06:36:14;;;;;;;;;;;18.30;40.60;;;;;;462303;254;2155;-45
2021/04/01 06:40:34;;;;;;;;;;;18.30;40.60;;;;;;462359;257;1117;-45
2021/04/01 06:42:36;;;;;;;;;;;18.20;40.60;;;;;;462230;257;2211;-45
2021/04/01 06:44:37;;;;;;;;;;;18.20;40.70;;;;;;462427;257;1092;-45
2021/04/01 06:46:38;;;;;;;;;;;18.20;40.70;;;;;;462480;257;1164;-45
2021/04/01 06:49:00;;;;;;;;;;;18.20;40.80;;;;;;462340;257;1221;-45
2021/04/01 06:50:51;;;;;;;;;;;18.20;40.80;;;;;;461494;258;1991;-45
2021/04/01 06:52:58;;;;;;;;;;;18.20;40.80;;;;;;462379;257;1179;-45
2021/04/01 06:54:59;;;;;;;;;;;18.30;40.70;;;;;;461951;257;2043;-45
2021/04/01 06:57:03;;;;;;;;;;;18.60;39.90;;;;;;462264;257;1920;-45
2021/04/01 06:59:05;;;;;;;;;;;19.00;39.10;;;;;;461948;258;1466;-45
2021/04/01 07:01:04;;;;;;;;;;;19.20;38.60;;;;;;461944;258;2296;-44
2021/04/01 07:03:06;;;;;;;;;;;19.40;38.30;;;;;;462125;257;2198;-45
2021/04/01 07:05:05;;;;;;;;;;;19.50;38.10;;;;;;462507;257;2200;-45
2021/04/01 07:07:07;;;;;;;;;;;19.60;37.80;;;;;;462260;257;1325;-45
2021/04/01 07:09:10;;;;;;;;;;;19.70;37.70;;;;;;462165;257;1419;-45
2021/04/01 07:11:10;;;;;;;;;;;19.80;37.60;;;;;;462074;258;1687;-45
2021/04/01 07:13:14;;;;;;;;;;;19.90;37.40;;;;;;462100;257;1471;-45
2021/04/01 07:15:13;;;;;;;;;;;20.00;37.40;;;;;;461805;257;2370;-45
2021/04/01 07:17:15;;;;;;;;;;;20.00;37.30;;;;;;461986;257;1874;-45
2021/04/01 07:19:32;;;;;;;;;;;20.00;37.30;;;;;;462149;258;1385;-45
2021/04/01 07:24:31;;;;;;;;;;;20.10;37.10;;;;;;455640;257;1198;-45
2021/04/01 07:31:40;;;;;;;;;;;20.20;36.90;;;;;;462197;258;1496;-45
2021/04/01 07:35:48;;;;;;;;;;;20.30;36.80;;;;;;461995;257;1130;-45
2021/04/01 07:44:50;;;;;;;;;;;20.40;36.60;;;;;;462083;257;1149;-45
2021/04/01 07:46:50;;;;;;;;;;;20.40;36.70;;;;;;461744;258;1565;-45
2021/04/01 07:48:53;;;;;;;;;;;20.50;36.60;;;;;;462378;257;1382;-45
2021/04/01 07:50:51;;;;;;;;;;;20.50;36.60;;;;;;461868;258;1872;-45
2021/04/01 07:52:53;;;;;;;;;;;20.50;36.50;;;;;;462126;257;1199;-45
2021/04/01 07:55:06;;;;;;;;;;;20.60;36.50;;;;;;462047;257;1151;-45
2021/04/01 07:57:08;;;;;;;;;;;20.70;36.50;;;;;;461720;257;1399;-45
2021/04/01 07:59:20;;;;;;;;;;;20.60;36.40;;;;;;461896;258;1448;-45
2021/04/01 08:01:29;;;;;;;;;;;20.70;36.50;;;;;;461873;258;1425;-45
2021/04/01 08:03:50;;;;;;;;;;;20.70;36.40;;;;;;462043;257;2245;-45
2021/04/01 08:05:22;;;;;;;;;;;20.70;36.30;;;;;;461353;257;1813;-45
2021/04/01 08:07:24;;;;;;;;;;;20.70;36.30;;;;;;462854;257;1247;-45
2021/04/01 08:09:25;;;;;;;;;;;20.70;36.30;;;;;;462826;257;1100;-45
2021/04/01 08:11:28;;;;;;;;;;;20.70;36.30;;;;;;462426;257;1041;-45
2021/04/01 08:13:28;;;;;;;;;;;20.80;36.40;;;;;;462420;258;1333;-45
2021/04/01 08:15:31;;;;;;;;;;;20.80;36.30;;;;;;462655;257;1116;-45
2021/04/01 08:17:35;;;;;;;;;;;20.80;36.30;;;;;;461745;257;2317;-45
2021/04/01 08:19:31;;;;;;;;;;;20.80;36.20;;;;;;462281;258;1438;-45
2021/04/01 08:21:33;;;;;;;;;;;20.80;36.10;;;;;;462944;257;982;-45
2021/04/01 08:23:35;;;;;;;;;;;20.90;36.10;;;;;;462876;257;2191;-45
2021/04/01 08:25:38;;;;;;;;;;;20.90;36.10;;;;;;462768;257;1963;-45
2021/04/01 08:27:43;;;;;;;;;;;20.90;36.10;;;;;;462544;257;1705;-45
2021/04/01 08:32:31;;;;;;;;;;;20.90;36.10;;;;;;462763;257;898;-45
2021/04/01 08:34:31;;;;;;;;;;;20.90;36.00;;;;;;462094;257;1377;-45
2021/04/01 08:36:22;;;;;;;;;;;21.00;36.00;;;;;;461914;258;2034;-45
2021/04/01 08:38:24;;;;;;;;;;;21.00;35.90;;;;;;462754;257;1144;-45
2021/04/01 08:40:25;;;;;;;;;;;21.00;35.90;;;;;;461928;257;1217;-45
2021/04/01 08:42:26;;;;;;;;;;;21.10;36.00;;;;;;461981;257;2199;-45
2021/04/01 08:44:28;;;;;;;;;;;21.10;35.90;;;;;;461981;257;1101;-45
2021/04/01 08:46:29;;;;;;;;;;;21.10;35.90;;;;;;461914;257;1125;-45
2021/04/01 08:48:30;;;;;;;;;;;21.00;35.90;;;;;;461803;257;1268;-45
2021/04/01 08:50:31;;;;;;;;;;;21.10;36.00;;;;;;461833;257;1164;-45
2021/04/01 08:52:33;;;;;;;;;;;21.10;35.90;;;;;;461869;257;1111;-45
2021/04/01 08:54:34;;;;;;;;;;;21.10;35.90;;;;;;461947;257;1181;-45
2021/04/01 08:56:35;;;;;;;;;;;21.10;35.90;;;;;;462238;257;1215;-45
2021/04/01 08:58:36;;;;;;;;;;;21.10;35.90;;;;;;462513;257;1179;-45
2021/04/01 09:00:38;;;;;;;;;;;21.10;35.90;;;;;;462282;257;1216;-45
2021/04/01 09:02:39;;;;;;;;;;;21.20;35.90;;;;;;462404;257;2199;-45
2021/04/01 09:04:40;;;;;;;;;;;21.20;35.80;;;;;;462489;257;1059;-45
2021/04/01 09:06:42;;;;;;;;;;;21.20;35.80;;;;;;461975;257;1279;-45
2021/04/01 09:08:43;;;;;;;;;;;21.20;35.80;;;;;;461990;257;1101;-45
2021/04/01 09:10:44;;;;;;;;;;;21.20;35.80;;;;;;461914;257;1247;-45
2021/04/01 09:12:47;;;;;;;;;;;21.20;35.90;;;;;;462460;257;1344;-45
2021/04/01 09:14:49;;;;;;;;;;;21.30;35.70;;;;;;462456;258;1828;-45
2021/04/01 09:16:53;;;;;;;;;;;21.20;35.90;;;;;;462837;257;1808;-45
2021/04/01 09:18:51;;;;;;;;;;;20.70;36.50;;;;;;462655;257;1337;-45
2021/04/01 09:20:52;;;;;;;;;;;20.30;37.50;;;;;;462930;257;901;-45
2021/04/01 09:22:54;;;;;;;;;;;19.90;38.20;;;;;;462480;257;2196;-45
2021/04/01 09:24:55;;;;;;;;;;;19.70;38.80;;;;;;462159;257;1117;-45
2021/04/01 09:26:56;;;;;;;;;;;19.40;39.20;;;;;;462001;257;1238;-45
2021/04/01 09:28:57;;;;;;;;;;;19.30;39.50;;;;;;462194;257;1284;-45
2021/04/01 09:30:59;;;;;;;;;;;19.20;39.70;;;;;;462152;257;1080;-45
2021/04/01 09:33:01;;;;;;;;;;;19.20;39.80;;;;;;462147;257;1172;-45
2021/04/01 09:35:02;;;;;;;;;;;19.10;40.00;;;;;;462147;257;1469;-44
2021/04/01 09:37:03;;;;;;;;;;;19.00;40.10;;;;;;462129;257;1253;-45
2021/04/01 09:39:15;;;;;;;;;;;19.00;40.20;;;;;;462196;257;1116;-45
2021/04/01 09:41:07;;;;;;;;;;;18.90;40.40;;;;;;461596;258;1423;-45
2021/04/01 09:43:08;;;;;;;;;;;18.90;40.40;;;;;;462263;257;2208;-45
2021/04/01 09:45:09;;;;;;;;;;;18.90;40.40;;;;;;462187;257;1128;-45
2021/04/01 09:47:11;;;;;;;;;;;18.90;40.40;;;;;;462365;257;1407;-44
2021/04/01 09:49:12;;;;;;;;;;;18.80;40.60;;;;;;462484;257;1208;-45
2021/04/01 09:51:13;;;;;;;;;;;18.70;40.60;;;;;;462348;254;1181;-45
2021/04/01 09:53:14;;;;;;;;;;;18.70;40.70;;;;;;462350;257;1245;-44
2021/04/01 09:55:16;;;;;;;;;;;18.70;40.70;;;;;;462099;257;1169;-45
2021/04/01 09:57:17;;;;;;;;;;;18.60;40.70;;;;;;462079;257;1245;-45
2021/04/01 09:59:18;;;;;;;;;;;18.60;40.90;;;;;;462092;257;1179;-45
2021/04/01 10:01:28;;;;;;;;;;;18.60;40.90;;;;;;462018;257;1258;-45
2021/04/01 10:03:28;;;;;;;;;;;18.60;40.90;;;;;;461789;257;2203;-45
2021/04/01 10:05:29;;;;;;;;;;;18.60;40.80;;;;;;462116;257;1083;-44
2021/04/01 10:07:30;;;;;;;;;;;18.60;40.80;;;;;;462341;257;1334;-45
2021/04/01 10:09:33;;;;;;;;;;;18.60;40.90;;;;;;462119;257;1136;-45
2021/04/01 10:11:33;;;;;;;;;;;18.50;40.90;;;;;;461995;257;1581;-44
2021/04/01 10:13:34;;;;;;;;;;;18.40;40.90;;;;;;462097;257;1111;-44
2021/04/01 10:15:36;;;;;;;;;;;18.40;41.00;;;;;;462398;257;1135;-45
2021/04/01 10:17:37;;;;;;;;;;;18.40;41.00;;;;;;462220;257;1132;-45
2021/04/01 10:19:38;;;;;;;;;;;18.40;41.10;;;;;;462292;257;1198;-45
2021/04/01 10:21:39;;;;;;;;;;;18.40;41.10;;;;;;462250;257;1246;-44
2021/04/01 10:23:41;;;;;;;;;;;18.40;41.20;;;;;;462348;257;2222;-45
2021/04/01 10:25:48;;;;;;;;;;;18.40;41.20;;;;;;462173;257;1226;-44
2021/04/01 10:27:51;;;;;;;;;;;18.40;41.20;;;;;;462261;258;1837;-45
2021/04/01 10:29:59;;;;;;;;;;;18.40;41.20;;;;;;462059;257;1379;-45
2021/04/01 10:32:00;;;;;;;;;;;18.30;41.20;;;;;;462253;258;1242;-45
2021/04/01 10:34:01;;;;;;;;;;;18.40;41.20;;;;;;462174;257;1220;-45
2021/04/01 10:36:03;;;;;;;;;;;18.30;41.20;;;;;;462131;257;1121;-45
2021/04/01 10:38:04;;;;;;;;;;;18.30;41.30;;;;;;462101;257;1123;-45
2021/04/01 10:40:06;;;;;;;;;;;18.30;41.30;;;;;;461994;257;1100;-45
2021/04/01 10:42:07;;;;;;;;;;;18.20;41.30;;;;;;462120;257;1197;-45
2021/04/01 10:44:08;;;;;;;;;;;18.20;41.30;;;;;;462345;257;2164;-45
2021/04/01 10:46:10;;;;;;;;;;;18.20;41.30;;;;;;462283;257;1125;-45
2021/04/01 10:48:11;;;;;;;;;;;18.20;41.20;;;;;;462135;257;1078;-45
2021/04/01 10:50:12;;;;;;;;;;;18.20;41.30;;;;;;462058;257;1193;-45
2021/04/01 10:52:14;;;;;;;;;;;18.20;41.20;;;;;;462092;257;1174;-45
2021/04/01 10:54:15;;;;;;;;;;;18.20;41.30;;;;;;462025;257;1132;-45
2021/04/01 10:56:16;;;;;;;;;;;18.20;41.30;;;;;;461947;257;1240;-45
2021/04/01 10:58:18;;;;;;;;;;;18.20;41.40;;;;;;461988;257;1135;-45
2021/04/01 11:00:19;;;;;;;;;;;18.10;41.40;;;;;;462001;257;1345;-45
2021/04/01 11:02:20;;;;;;;;;;;18.10;41.40;;;;;;462241;257;1123;-45
2021/04/01 11:04:22;;;;;;;;;;;18.10;41.40;;;;;;462059;257;2195;-45
2021/04/01 11:06:23;;;;;;;;;;;18.10;41.40;;;;;;462096;257;1191;-45
2021/04/01 11:08:24;;;;;;;;;;;18.20;41.30;;;;;;462236;257;1394;-45
2021/04/01 11:10:26;;;;;;;;;;;18.20;41.30;;;;;;462164;257;1137;-45
2021/04/01 11:12:27;;;;;;;;;;;18.10;41.30;;;;;;462278;257;1388;-45
2021/04/01 11:14:30;;;;;;;;;;;18.10;41.40;;;;;;462633;257;1178;-45
2021/04/01 11:16:30;;;;;;;;;;;18.10;41.30;;;;;;462087;257;2031;-45
2021/04/01 11:18:31;;;;;;;;;;;18.10;41.40;;;;;;462250;257;1308;-45
2021/04/01 11:20:32;;;;;;;;;;;18.10;41.40;;;;;;462155;257;1119;-45
2021/04/01 11:22:34;;;;;;;;;;;18.10;41.40;;;;;;462150;257;1171;-45
2021/04/01 11:24:35;;;;;;;;;;;18.10;41.30;;;;;;462270;257;2946;-44
2021/04/01 11:26:36;;;;;;;;;;;18.10;41.30;;;;;;462303;257;1277;-45
2021/04/01 11:28:38;;;;;;;;;;;18.10;41.40;;;;;;462298;257;1137;-44
2021/04/01 11:30:39;;;;;;;;;;;18.00;41.40;;;;;;462264;257;1177;-44
2021/04/01 11:32:40;;;;;;;;;;;18.10;41.50;;;;;;462184;257;1083;-45
2021/04/01 11:34:42;;;;;;;;;;;18.00;41.50;;;;;;462292;257;1123;-45
2021/04/01 11:36:45;;;;;;;;;;;18.00;41.40;;;;;;462253;257;1072;-45
2021/04/01 11:38:45;;;;;;;;;;;18.00;41.40;;;;;;462087;258;1355;-45
2021/04/01 11:40:45;;;;;;;;;;;18.00;41.40;;;;;;462155;257;1764;-45
2021/04/01 11:42:47;;;;;;;;;;;18.10;41.40;;;;;;462191;257;1159;-45
2021/04/01 11:44:49;;;;;;;;;;;18.00;41.30;;;;;;462272;257;2187;-44
2021/04/01 11:46:50;;;;;;;;;;;18.00;41.40;;;;;;462145;257;1213;-44
2021/04/01 11:48:51;;;;;;;;;;;18.00;41.40;;;;;;462230;257;1363;-45
2021/04/01 11:50:52;;;;;;;;;;;18.00;41.40;;;;;;462365;257;1119;-45
2021/04/01 11:52:53;;;;;;;;;;;18.00;41.40;;;;;;462234;257;1235;-45
2021/04/01 11:54:55;;;;;;;;;;;18.00;41.40;;;;;;462090;257;1091;-44
2021/04/01 11:56:56;;;;;;;;;;;18.00;41.50;;;;;;462282;257;1248;-45
2021/04/01 11:58:57;;;;;;;;;;;18.00;41.30;;;;;;462273;257;1203;-45
2021/04/01 12:00:59;;;;;;;;;;;18.00;41.40;;;;;;462196;257;1174;-44
2021/04/01 12:03:05;;;;;;;;;;;18.00;41.30;;;;;;462195;257;2220;-45
2021/04/01 12:05:02;;;;;;;;;;;18.00;41.30;;;;;;461904;257;1920;-45
2021/04/01 12:07:04;;;;;;;;;;;18.00;41.30;;;;;;462104;257;2199;-45
2021/04/01 12:09:05;;;;;;;;;;;18.00;41.30;;;;;;462360;257;1239;-45
2021/04/01 12:11:06;;;;;;;;;;;18.00;41.40;;;;;;462283;257;1223;-45
2021/04/01 12:13:08;;;;;;;;;;;17.90;41.30;;;;;;462222;257;1189;-45
2021/04/01 12:15:09;;;;;;;;;;;18.00;41.40;;;;;;462319;257;1098;-45
2021/04/01 12:17:10;;;;;;;;;;;18.00;41.40;;;;;;462268;257;1321;-44
2021/04/01 12:19:11;;;;;;;;;;;17.90;41.30;;;;;;462256;257;1094;-45
2021/04/01 12:21:13;;;;;;;;;;;18.00;41.30;;;;;;461913;257;1090;-45
2021/04/01 12:23:14;;;;;;;;;;;18.00;41.30;;;;;;462019;257;2168;-44
2021/04/01 12:25:15;;;;;;;;;;;18.00;41.30;;;;;;462261;257;1156;-44
2021/04/01 12:27:17;;;;;;;;;;;18.00;41.30;;;;;;462291;257;1101;-45
2021/04/01 12:29:18;;;;;;;;;;;18.00;41.30;;;;;;462334;257;1124;-45
2021/04/01 12:31:21;;;;;;;;;;;18.00;41.30;;;;;;462302;257;1263;-44